Time;durP1;ratioP1;P1;durP2;ratioP2;P2;SDS_P1;SDS_P2;PMS_P1;PMS_P2;Temp;Humidity;BMP_temperature;BMP_pressure;BME280_temperature;BME280_humidity;BME280_pressure;Samples;Min_cycle;Max_cycle;Signal;HPM_P1;HPM_P2
2022/10/19 00:00:00;;;;;;;;;;;;;;;;;;2106599;28;19920;-46
2022/10/19 00:01:01;;;;;;;;;;;;;;;;;;2106719;28;20003;-45
2022/10/19 00:02:02;;;;;;;;;;;;;;;;;;2106534;28;20293;-46
2022/10/19 00:03:02;;;;;;;;;;;;;;;;;;2106688;28;20312;-47
2022/10/19 00:04:03;;;;;;;;;;;;;;;;;;2106592;28;19971;-45
2022/10/19 00:05:08;;;;;;;;;;;;;;;;;;2106660;28;19920;-45
2022/10/19 00:06:09;;;;;;;;;;;;;;;;;;2106558;28;19926;-46
2022/10/19 00:07:09;;;;;;;;;;;;;;;;;;2106554;28;19927;-46
2022/10/19 00:08:10;;;;;;;;;;;;;;;;;;2105185;28;19951;-45
2022/10/19 00:09:11;;;;;;;;;;;;;;;;;;2102651;28;20361;-45
2022/10/19 00:10:12;;;;;;;;;;;;;;;;;;2105854;28;20363;-46
2022/10/19 00:11:13;;;;;;;;;;;;;;;;;;2101792;28;19920;-46
2022/10/19 00:12:14;;;;;;;;;;;;;;;;;;2098229;28;19920;-45
2022/10/19 00:13:14;;;;;;;;;;;;;;;;;;2098154;28;19978;-46
2022/10/19 00:14:15;;;;;;;;;;;;;;;;;;2098238;28;20011;-46
2022/10/19 00:15:16;;;;;;;;;;;;;;;;;;2098303;28;19920;-45
2022/10/19 00:16:17;;;;;;;;;;;;;;;;;;2098133;28;20009;-45
2022/10/19 00:17:17;;;;;;;;;;;;;;;;;;2097988;28;19920;-46
2022/10/19 00:18:18;;;;;;;;;;;;;;;;;;2098077;28;19974;-46
2022/10/19 00:19:19;;;;;;;;;;;;;;;;;;2098171;28;20392;-45
2022/10/19 00:20:20;;;;;;;;;;;;;;;;;;2098237;28;19920;-47
2022/10/19 00:21:21;;;;;;;;;;;;;;;;;;2098192;28;20366;-46
2022/10/19 00:22:22;;;;;;;;;;;;;;;;;;2097960;28;19964;-46
2022/10/19 00:23:22;;;;;;;;;;;;;;;;;;2098216;28;19920;-46
2022/10/19 00:24:23;;;;;;;;;;;;;;;;;;2098092;28;20021;-46
2022/10/19 00:25:24;;;;;;;;;;;;;;;;;;2098025;28;19927;-46
2022/10/19 00:26:25;;;;;;;;;;;;;;;;;;2097997;28;19969;-46
2022/10/19 00:27:26;;;;;;;;;;;;;;;;;;2098011;28;19920;-46
2022/10/19 00:28:27;;;;;;;;;;;;;;;;;;2098136;28;19966;-46
2022/10/19 00:29:27;;;;;;;;;;;;;;;;;;2098041;28;19921;-46
2022/10/19 00:30:28;;;;;;;;;;;;;;;;;;2097997;28;19920;-45
2022/10/19 00:31:29;;;;;;;;;;;;;;;;;;2097987;28;19920;-46
2022/10/19 00:32:30;;;;;;;;;;;;;;;;;;2098134;28;19924;-46
2022/10/19 00:33:31;;;;;;;;;;;;;;;;;;2097996;28;19924;-46
2022/10/19 00:34:32;;;;;;;;;;;;;;;;;;2098058;28;19920;-46
2022/10/19 00:35:32;;;;;;;;;;;;;;;;;;2098058;28;19976;-45
2022/10/19 00:36:33;;;;;;;;;;;;;;;;;;2102513;28;19926;-45
2022/10/19 00:37:34;;;;;;;;;;;;;;;;;;2106343;28;19927;-45
2022/10/19 00:38:35;;;;;;;;;;;;;;;;;;2106320;28;19927;-46
2022/10/19 00:39:36;;;;;;;;;;;;;;;;;;2106498;28;19920;-46
2022/10/19 00:40:37;;;;;;;;;;;;;;;;;;2106243;28;20344;-57
2022/10/19 00:41:38;;;;;;;;;;;;;;;;;;2105587;28;19973;-57
2022/10/19 00:42:38;;;;;;;;;;;;;;;;;;2105194;28;20339;-46
2022/10/19 00:43:39;;;;;;;;;;;;;;;;;;2105338;28;19920;-45
2022/10/19 00:44:58;;;;;;;;;;;;;;;;;;2105235;28;19924;-46
2022/10/19 00:45:59;;;;;;;;;;;;;;;;;;2105196;28;20418;-46
2022/10/19 00:47:00;;;;;;;;;;;;;;;;;;2105003;28;19920;-46
2022/10/19 00:48:01;;;;;;;;;;;;;;;;;;2104429;28;19967;-45
2022/10/19 00:49:01;;;;;;;;;;;;;;;;;;2102742;28;19920;-46
2022/10/19 00:50:03;;;;;;;;;;;;;;;;;;2102611;28;19986;-46
2022/10/19 00:51:04;;;;;;;;;;;;;;;;;;2105104;28;19950;-46
2022/10/19 00:52:05;;;;;;;;;;;;;;;;;;2099450;28;19932;-46
2022/10/19 00:53:06;;;;;;;;;;;;;;;;;;2099575;28;19928;-46
2022/10/19 00:54:07;;;;;;;;;;;;;;;;;;2099561;28;19929;-46
2022/10/19 00:55:07;;;;;;;;;;;;;;;;;;2099489;28;19920;-46
2022/10/19 00:56:08;;;;;;;;;;;;;;;;;;2099393;28;19969;-46
2022/10/19 00:57:09;;;;;;;;;;;;;;;;;;2099373;28;20388;-45
2022/10/19 00:58:10;;;;;;;;;;;;;;;;;;2099411;28;19968;-46
2022/10/19 00:59:10;;;;;;;;;;;;;;;;;;2099566;28;19920;-46
2022/10/19 01:00:11;;;;;;;;;;;;;;;;;;2099510;28;20045;-46
2022/10/19 01:01:12;;;;;;;;;;;;;;;;;;2099595;28;19920;-45
2022/10/19 01:02:13;;;;;;;;;;;;;;;;;;2099372;28;19970;-46
2022/10/19 01:03:14;;;;;;;;;;;;;;;;;;2099457;28;19928;-48
2022/10/19 01:04:15;;;;;;;;;;;;;;;;;;2099355;28;19924;-46
2022/10/19 01:05:16;;;;;;;;;;;;;;;;;;2099418;28;19970;-46
2022/10/19 01:06:16;;;;;;;;;;;;;;;;;;2099541;28;20039;-45
2022/10/19 01:07:17;;;;;;;;;;;;;;;;;;2099309;28;19920;-46
2022/10/19 01:08:18;;;;;;;;;;;;;;;;;;2099492;28;20385;-46
2022/10/19 01:09:19;;;;;;;;;;;;;;;;;;2099386;28;19956;-47
2022/10/19 01:10:20;;;;;;;;;;;;;;;;;;2105076;28;20285;-47
2022/10/19 01:11:21;;;;;;;;;;;;;;;;;;2107649;28;20289;-46
2022/10/19 01:12:21;;;;;;;;;;;;;;;;;;2107675;28;20425;-46
2022/10/19 01:13:22;;;;;;;;;;;;;;;;;;2107731;28;19920;-47
2022/10/19 01:14:23;;;;;;;;;;;;;;;;;;2107812;28;19977;-47
2022/10/19 01:15:24;;;;;;;;;;;;;;;;;;2107738;28;20270;-46
2022/10/19 01:16:25;;;;;;;;;;;;;;;;;;2107758;28;20014;-46
2022/10/19 01:17:26;;;;;;;;;;;;;;;;;;2107613;28;19926;-46
2022/10/19 01:18:27;;;;;;;;;;;;;;;;;;2107717;28;19924;-46
2022/10/19 01:19:27;;;;;;;;;;;;;;;;;;2107807;28;20289;-46
2022/10/19 01:20:28;;;;;;;;;;;;;;;;;;2107618;28;19984;-46
2022/10/19 01:21:29;;;;;;;;;;;;;;;;;;2107534;28;19926;-46
2022/10/19 01:22:30;;;;;;;;;;;;;;;;;;2107752;28;19928;-46
2022/10/19 01:23:30;;;;;;;;;;;;;;;;;;2107773;28;19950;-45
2022/10/19 01:24:31;;;;;;;;;;;;;;;;;;2107710;28;19967;-47
2022/10/19 01:25:34;;;;;;;;;;;;;;;;;;2107735;28;19965;-49
2022/10/19 01:26:34;;;;;;;;;;;;;;;;;;2107558;28;19974;-46
2022/10/19 01:27:35;;;;;;;;;;;;;;;;;;2107628;28;20011;-47
2022/10/19 01:28:37;;;;;;;;;;;;;;;;;;2107752;28;19924;-48
2022/10/19 01:29:37;;;;;;;;;;;;;;;;;;2107587;28;20441;-47
2022/10/19 01:30:38;;;;;;;;;;;;;;;;;;2107758;28;19927;-46
2022/10/19 01:31:39;;;;;;;;;;;;;;;;;;2107441;28;19970;-46
2022/10/19 01:32:40;;;;;;;;;;;;;;;;;;2106101;28;19920;-46
2022/10/19 01:33:40;;;;;;;;;;;;;;;;;;2107506;28;19920;-46
2022/10/19 01:34:41;;;;;;;;;;;;;;;;;;2107733;28;19997;-46
2022/10/19 01:35:42;;;;;;;;;;;;;;;;;;2107609;28;20392;-46
2022/10/19 01:36:43;;;;;;;;;;;;;;;;;;2107640;28;19920;-46
2022/10/19 01:37:44;;;;;;;;;;;;;;;;;;2107614;28;20327;-47
2022/10/19 01:38:45;;;;;;;;;;;;;;;;;;2107499;28;19931;-46
2022/10/19 01:39:45;;;;;;;;;;;;;;;;;;2107559;28;19970;-46
2022/10/19 01:40:49;;;;;;;;;;;;;;;;;;2107453;28;20407;-46
2022/10/19 01:41:50;;;;;;;;;;;;;;;;;;2107414;28;19950;-46
2022/10/19 01:42:51;;;;;;;;;;;;;;;;;;2107550;28;19924;-48
2022/10/19 01:43:51;;;;;;;;;;;;;;;;;;2107853;28;19924;-46
2022/10/19 01:44:52;;;;;;;;;;;;;;;;;;2107597;28;20395;-46
2022/10/19 01:45:53;;;;;;;;;;;;;;;;;;2107632;28;19976;-49
2022/10/19 01:46:54;;;;;;;;;;;;;;;;;;2107573;28;20371;-46
2022/10/19 01:47:55;;;;;;;;;;;;;;;;;;2107433;28;19920;-46
2022/10/19 01:48:56;;;;;;;;;;;;;;;;;;2107491;28;20387;-46
2022/10/19 01:49:56;;;;;;;;;;;;;;;;;;2107445;28;19924;-46
2022/10/19 01:50:57;;;;;;;;;;;;;;;;;;2107473;28;20018;-46
2022/10/19 01:51:58;;;;;;;;;;;;;;;;;;2107272;28;19920;-46
2022/10/19 01:53:04;;;;;;;;;;;;;;;;;;2107602;28;19920;-46
2022/10/19 01:54:05;;;;;;;;;;;;;;;;;;2107488;28;19920;-46
2022/10/19 01:55:06;;;;;;;;;;;;;;;;;;2107455;28;19920;-45
2022/10/19 01:56:06;;;;;;;;;;;;;;;;;;2107423;28;19924;-46
2022/10/19 01:57:07;;;;;;;;;;;;;;;;;;2107380;28;20668;-45
2022/10/19 01:58:08;;;;;;;;;;;;;;;;;;2107450;28;19927;-46
2022/10/19 01:59:10;;;;;;;;;;;;;;;;;;2107341;28;20012;-46
2022/10/19 02:00:10;;;;;;;;;;;;;;;;;;2107498;28;19927;-46
2022/10/19 02:01:11;;;;;;;;;;;;;;;;;;2106519;28;19927;-46
2022/10/19 02:02:12;;;;;;;;;;;;;;;;;;2106949;28;20411;-45
2022/10/19 02:03:13;;;;;;;;;;;;;;;;;;2107439;28;19927;-45
2022/10/19 02:04:14;;;;;;;;;;;;;;;;;;2107387;28;19926;-46
2022/10/19 02:05:15;;;;;;;;;;;;;;;;;;2107271;28;19920;-45
2022/10/19 02:06:15;;;;;;;;;;;;;;;;;;2107472;28;20365;-46
2022/10/19 02:07:16;;;;;;;;;;;;;;;;;;2107409;28;19931;-46
2022/10/19 02:08:17;;;;;;;;;;;;;;;;;;2107382;28;20350;-46
2022/10/19 02:09:19;;;;;;;;;;;;;;;;;;2107441;28;20026;-46
2022/10/19 02:10:19;;;;;;;;;;;;;;;;;;2101472;28;19920;-47
2022/10/19 02:11:21;;;;;;;;;;;;;;;;;;2098979;28;20013;-46
2022/10/19 02:12:21;;;;;;;;;;;;;;;;;;2098850;28;20325;-47
2022/10/19 02:13:22;;;;;;;;;;;;;;;;;;2099094;28;20015;-46
2022/10/19 02:14:23;;;;;;;;;;;;;;;;;;2098898;28;20023;-46
2022/10/19 02:15:24;;;;;;;;;;;;;;;;;;2099071;28;19959;-46
2022/10/19 02:16:25;;;;;;;;;;;;;;;;;;2099048;28;20335;-46
2022/10/19 02:17:26;;;;;;;;;;;;;;;;;;2098980;28;20356;-46
2022/10/19 02:18:26;;;;;;;;;;;;;;;;;;2098890;28;19973;-46
2022/10/19 02:19:27;;;;;;;;;;;;;;;;;;2098956;28;20169;-47
2022/10/19 02:20:28;;;;;;;;;;;;;;;;;;2099056;28;19927;-46
2022/10/19 02:21:29;;;;;;;;;;;;;;;;;;2098806;28;19959;-47
2022/10/19 02:22:29;;;;;;;;;;;;;;;;;;2099034;28;19970;-46
2022/10/19 02:23:30;;;;;;;;;;;;;;;;;;2098891;28;19921;-46
2022/10/19 02:24:31;;;;;;;;;;;;;;;;;;2098923;28;19924;-46
2022/10/19 02:25:32;;;;;;;;;;;;;;;;;;2098800;28;19963;-46
2022/10/19 02:26:33;;;;;;;;;;;;;;;;;;2098832;28;20369;-46
2022/10/19 02:27:34;;;;;;;;;;;;;;;;;;2099018;28;19966;-47
2022/10/19 02:28:34;;;;;;;;;;;;;;;;;;2098809;28;20429;-46
2022/10/19 02:29:35;;;;;;;;;;;;;;;;;;2106652;28;19923;-46
2022/10/19 02:30:36;;;;;;;;;;;;;;;;;;2107296;28;19956;-46
2022/10/19 02:31:37;;;;;;;;;;;;;;;;;;2107252;28;19986;-47
2022/10/19 02:32:38;;;;;;;;;;;;;;;;;;2107166;28;19981;-44
2022/10/19 02:33:39;;;;;;;;;;;;;;;;;;2107211;28;19920;-47
2022/10/19 02:34:39;;;;;;;;;;;;;;;;;;2107269;28;20011;-47
2022/10/19 02:35:40;;;;;;;;;;;;;;;;;;2107212;28;20288;-46
2022/10/19 02:36:41;;;;;;;;;;;;;;;;;;2107061;28;19973;-46
2022/10/19 02:37:42;;;;;;;;;;;;;;;;;;2107187;28;19927;-47
2022/10/19 02:38:43;;;;;;;;;;;;;;;;;;2107253;28;19920;-47
2022/10/19 02:39:44;;;;;;;;;;;;;;;;;;2107290;28;19920;-46
2022/10/19 02:40:44;;;;;;;;;;;;;;;;;;2107324;28;19947;-46
2022/10/19 02:41:45;;;;;;;;;;;;;;;;;;2107069;28;20381;-46
2022/10/19 02:42:46;;;;;;;;;;;;;;;;;;2107298;28;19924;-46
2022/10/19 02:43:47;;;;;;;;;;;;;;;;;;2107157;28;19954;-46
2022/10/19 02:44:47;;;;;;;;;;;;;;;;;;2107227;28;19927;-46
2022/10/19 02:45:48;;;;;;;;;;;;;;;;;;2107114;28;19920;-46
2022/10/19 02:46:49;;;;;;;;;;;;;;;;;;2107321;28;20015;-48
2022/10/19 02:47:50;;;;;;;;;;;;;;;;;;2107186;28;20333;-48
2022/10/19 02:48:51;;;;;;;;;;;;;;;;;;2107098;28;19924;-47
2022/10/19 02:49:52;;;;;;;;;;;;;;;;;;2107103;28;19920;-46
2022/10/19 02:50:53;;;;;;;;;;;;;;;;;;2107058;28;19951;-46
2022/10/19 02:51:53;;;;;;;;;;;;;;;;;;2107129;28;20335;-47
2022/10/19 02:52:54;;;;;;;;;;;;;;;;;;2107104;28;20036;-46
2022/10/19 02:53:55;;;;;;;;;;;;;;;;;;2107058;28;19920;-46
2022/10/19 02:54:56;;;;;;;;;;;;;;;;;;2107097;28;20023;-46
2022/10/19 02:55:57;;;;;;;;;;;;;;;;;;2107208;28;19924;-45
2022/10/19 02:56:58;;;;;;;;;;;;;;;;;;2107040;28;19920;-47
2022/10/19 02:57:58;;;;;;;;;;;;;;;;;;2107125;28;19920;-47
2022/10/19 02:58:59;;;;;;;;;;;;;;;;;;2107105;28;19920;-47
2022/10/19 03:00:00;;;;;;;;;;;;;;;;;;2107141;28;20146;-46
2022/10/19 03:01:01;;;;;;;;;;;;;;;;;;2107155;28;20395;-47
2022/10/19 03:02:02;;;;;;;;;;;;;;;;;;2106858;28;19927;-46
2022/10/19 03:03:03;;;;;;;;;;;;;;;;;;2107156;28;20369;-47
2022/10/19 03:04:03;;;;;;;;;;;;;;;;;;2107009;28;19920;-46
2022/10/19 03:05:04;;;;;;;;;;;;;;;;;;2107089;28;19963;-46
2022/10/19 03:06:05;;;;;;;;;;;;;;;;;;2106990;28;20365;-46
2022/10/19 03:07:06;;;;;;;;;;;;;;;;;;2107085;28;20404;-46
2022/10/19 03:08:06;;;;;;;;;;;;;;;;;;2107033;28;19931;-47
2022/10/19 03:09:07;;;;;;;;;;;;;;;;;;2107070;28;19973;-46
2022/10/19 03:10:08;;;;;;;;;;;;;;;;;;2102775;28;20427;-47
2022/10/19 03:11:09;;;;;;;;;;;;;;;;;;2098569;28;20418;-46
2022/10/19 03:12:10;;;;;;;;;;;;;;;;;;2098598;28;19920;-46
2022/10/19 03:13:11;;;;;;;;;;;;;;;;;;2098136;28;19974;-46
2022/10/19 03:14:11;;;;;;;;;;;;;;;;;;2098546;28;20014;-48
2022/10/19 03:15:12;;;;;;;;;;;;;;;;;;2098593;28;19949;-46
2022/10/19 03:16:13;;;;;;;;;;;;;;;;;;2098711;28;19928;-46
2022/10/19 03:17:14;;;;;;;;;;;;;;;;;;2098422;28;19965;-45
2022/10/19 03:18:14;;;;;;;;;;;;;;;;;;2098546;28;19920;-46
2022/10/19 03:19:15;;;;;;;;;;;;;;;;;;2098609;28;19920;-47
2022/10/19 03:20:16;;;;;;;;;;;;;;;;;;2098695;28;20391;-47
2022/10/19 03:21:17;;;;;;;;;;;;;;;;;;2098649;28;20349;-46
2022/10/19 03:22:18;;;;;;;;;;;;;;;;;;2098444;28;19920;-46
2022/10/19 03:23:19;;;;;;;;;;;;;;;;;;2098496;28;19974;-46
2022/10/19 03:24:19;;;;;;;;;;;;;;;;;;2098502;28;20058;-46
2022/10/19 03:25:20;;;;;;;;;;;;;;;;;;2103187;28;19966;-47
2022/10/19 03:26:21;;;;;;;;;;;;;;;;;;2106823;28;19920;-46
2022/10/19 03:27:22;;;;;;;;;;;;;;;;;;2106716;28;19989;-46
2022/10/19 03:28:23;;;;;;;;;;;;;;;;;;2106931;28;20426;-46
2022/10/19 03:29:24;;;;;;;;;;;;;;;;;;2106841;28;19969;-47
2022/10/19 03:30:24;;;;;;;;;;;;;;;;;;2106899;28;19969;-46
2022/10/19 03:31:26;;;;;;;;;;;;;;;;;;2106769;28;19970;-46
2022/10/19 03:32:26;;;;;;;;;;;;;;;;;;2106895;28;20178;-46
2022/10/19 03:33:27;;;;;;;;;;;;;;;;;;2106751;28;19975;-46
2022/10/19 03:34:28;;;;;;;;;;;;;;;;;;2106916;28;19924;-46
2022/10/19 03:35:29;;;;;;;;;;;;;;;;;;2106803;28;19920;-46
2022/10/19 03:36:30;;;;;;;;;;;;;;;;;;2106667;28;19920;-46
2022/10/19 03:37:30;;;;;;;;;;;;;;;;;;2106802;28;20049;-46
2022/10/19 03:38:32;;;;;;;;;;;;;;;;;;2106914;28;19920;-45
2022/10/19 03:39:32;;;;;;;;;;;;;;;;;;2106715;28;20015;-47
2022/10/19 03:40:33;;;;;;;;;;;;;;;;;;2106936;28;19942;-46
2022/10/19 03:41:34;;;;;;;;;;;;;;;;;;2106815;28;20380;-46
2022/10/19 03:42:35;;;;;;;;;;;;;;;;;;2106722;28;20266;-46
2022/10/19 03:43:35;;;;;;;;;;;;;;;;;;2106858;28;19920;-46
2022/10/19 03:44:36;;;;;;;;;;;;;;;;;;2106762;28;19920;-48
2022/10/19 03:45:37;;;;;;;;;;;;;;;;;;2106795;28;19951;-46
2022/10/19 03:46:38;;;;;;;;;;;;;;;;;;2106729;28;20363;-49
2022/10/19 03:47:39;;;;;;;;;;;;;;;;;;2106656;28;19920;-46
2022/10/19 03:48:40;;;;;;;;;;;;;;;;;;2106707;28;19920;-46
2022/10/19 03:49:42;;;;;;;;;;;;;;;;;;2106819;28;19920;-46
2022/10/19 03:50:43;;;;;;;;;;;;;;;;;;2106675;28;19927;-46
2022/10/19 03:51:44;;;;;;;;;;;;;;;;;;2106722;28;19920;-46
2022/10/19 03:52:44;;;;;;;;;;;;;;;;;;2106805;28;20053;-46
2022/10/19 03:53:45;;;;;;;;;;;;;;;;;;2106858;28;19927;-46
2022/10/19 03:54:46;;;;;;;;;;;;;;;;;;2106801;28;19920;-47
2022/10/19 03:55:47;;;;;;;;;;;;;;;;;;2106634;28;19928;-47
2022/10/19 03:56:48;;;;;;;;;;;;;;;;;;2106563;28;19924;-47
2022/10/19 03:57:48;;;;;;;;;;;;;;;;;;2106603;28;19932;-47
2022/10/19 03:58:49;;;;;;;;;;;;;;;;;;2106631;28;19963;-46
2022/10/19 03:59:50;;;;;;;;;;;;;;;;;;2106596;28;19926;-45
2022/10/19 04:00:51;;;;;;;;;;;;;;;;;;2106758;28;19931;-46
2022/10/19 04:01:52;;;;;;;;;;;;;;;;;;2106663;28;19920;-46
2022/10/19 04:02:53;;;;;;;;;;;;;;;;;;2106653;28;20015;-46
2022/10/19 04:03:54;;;;;;;;;;;;;;;;;;2106607;28;19974;-45
2022/10/19 04:04:54;;;;;;;;;;;;;;;;;;2106689;28;19920;-45
2022/10/19 04:05:55;;;;;;;;;;;;;;;;;;2106539;28;20034;-47
2022/10/19 04:06:56;;;;;;;;;;;;;;;;;;2106509;28;19962;-46
2022/10/19 04:07:57;;;;;;;;;;;;;;;;;;2106718;28;19927;-46
2022/10/19 04:08:58;;;;;;;;;;;;;;;;;;2106622;28;20423;-46
2022/10/19 04:09:58;;;;;;;;;;;;;;;;;;2103581;28;19928;-46
2022/10/19 04:11:00;;;;;;;;;;;;;;;;;;2098296;28;19955;-47
2022/10/19 04:12:01;;;;;;;;;;;;;;;;;;2098206;28;19990;-47
2022/10/19 04:13:01;;;;;;;;;;;;;;;;;;2098072;28;20018;-46
2022/10/19 04:14:02;;;;;;;;;;;;;;;;;;2098134;28;19921;-45
2022/10/19 04:15:03;;;;;;;;;;;;;;;;;;2098363;28;19927;-47
2022/10/19 04:16:04;;;;;;;;;;;;;;;;;;2098170;28;20019;-47
2022/10/19 04:17:05;;;;;;;;;;;;;;;;;;2098247;28;19920;-46
2022/10/19 04:18:06;;;;;;;;;;;;;;;;;;2098210;28;20381;-46
2022/10/19 04:19:06;;;;;;;;;;;;;;;;;;2098306;28;19947;-46
2022/10/19 04:20:07;;;;;;;;;;;;;;;;;;2098173;28;20347;-45
2022/10/19 04:21:08;;;;;;;;;;;;;;;;;;2099054;28;19920;-46
2022/10/19 04:22:09;;;;;;;;;;;;;;;;;;2098220;28;19954;-46
2022/10/19 04:23:10;;;;;;;;;;;;;;;;;;2098099;28;20371;-46
2022/10/19 04:24:11;;;;;;;;;;;;;;;;;;2097426;28;20012;-46
2022/10/19 04:25:11;;;;;;;;;;;;;;;;;;2097726;28;19927;-46
2022/10/19 04:26:12;;;;;;;;;;;;;;;;;;2098080;28;19920;-45
2022/10/19 04:27:13;;;;;;;;;;;;;;;;;;2097992;28;19966;-46
2022/10/19 04:28:14;;;;;;;;;;;;;;;;;;2098154;28;19974;-45
2022/10/19 04:29:15;;;;;;;;;;;;;;;;;;2098258;28;19955;-45
2022/10/19 04:30:16;;;;;;;;;;;;;;;;;;2098243;28;19920;-45
2022/10/19 04:31:17;;;;;;;;;;;;;;;;;;2098122;28;19968;-46
2022/10/19 04:32:17;;;;;;;;;;;;;;;;;;2098119;28;19967;-45
2022/10/19 04:33:18;;;;;;;;;;;;;;;;;;2098322;28;20357;-45
2022/10/19 04:34:19;;;;;;;;;;;;;;;;;;2098001;28;20406;-46
2022/10/19 04:35:20;;;;;;;;;;;;;;;;;;2098208;28;19951;-46
2022/10/19 04:36:21;;;;;;;;;;;;;;;;;;2098013;28;20400;-46
2022/10/19 04:37:21;;;;;;;;;;;;;;;;;;2097991;28;19927;-46
2022/10/19 04:38:22;;;;;;;;;;;;;;;;;;2098046;28;20006;-46
2022/10/19 04:39:23;;;;;;;;;;;;;;;;;;2098164;28;19920;-46
2022/10/19 04:40:24;;;;;;;;;;;;;;;;;;2098017;28;19920;-46
2022/10/19 04:41:25;;;;;;;;;;;;;;;;;;2098156;28;19920;-47
2022/10/19 04:42:26;;;;;;;;;;;;;;;;;;2097988;28;20410;-47
2022/10/19 04:43:26;;;;;;;;;;;;;;;;;;2097980;28;19921;-46
2022/10/19 04:44:27;;;;;;;;;;;;;;;;;;2098151;28;19982;-45
2022/10/19 04:45:28;;;;;;;;;;;;;;;;;;2097945;28;19927;-46
2022/10/19 04:46:29;;;;;;;;;;;;;;;;;;2097941;28;19959;-47
2022/10/19 04:47:29;;;;;;;;;;;;;;;;;;2098055;28;19921;-46
2022/10/19 04:48:30;;;;;;;;;;;;;;;;;;2097952;28;19963;-46
2022/10/19 04:49:31;;;;;;;;;;;;;;;;;;2097881;28;19920;-46
2022/10/19 04:50:32;;;;;;;;;;;;;;;;;;2097999;28;19920;-46
2022/10/19 04:51:33;;;;;;;;;;;;;;;;;;2097961;28;19968;-46
2022/10/19 04:52:34;;;;;;;;;;;;;;;;;;2098194;28;20066;-46
2022/10/19 04:53:34;;;;;;;;;;;;;;;;;;2097959;28;19921;-46
2022/10/19 04:54:35;;;;;;;;;;;;;;;;;;2097856;28;19920;-46
2022/10/19 04:55:36;;;;;;;;;;;;;;;;;;2098348;28;19927;-47
2022/10/19 04:56:37;;;;;;;;;;;;;;;;;;2097859;28;20022;-46
2022/10/19 04:57:38;;;;;;;;;;;;;;;;;;2098058;28;19930;-47
2022/10/19 04:58:39;;;;;;;;;;;;;;;;;;2097979;28;20285;-46
2022/10/19 04:59:39;;;;;;;;;;;;;;;;;;2098063;28;19920;-47
2022/10/19 05:00:40;;;;;;;;;;;;;;;;;;2098013;28;19920;-46
2022/10/19 05:01:41;;;;;;;;;;;;;;;;;;2097990;28;19927;-45
2022/10/19 05:02:47;;;;;;;;;;;;;;;;;;2098049;28;19924;-47
2022/10/19 05:03:48;;;;;;;;;;;;;;;;;;2098000;28;19924;-46
2022/10/19 05:04:49;;;;;;;;;;;;;;;;;;2098030;28;19920;-46
2022/10/19 05:05:50;;;;;;;;;;;;;;;;;;2097773;28;19966;-46
2022/10/19 05:06:50;;;;;;;;;;;;;;;;;;2097857;28;20365;-46
2022/10/19 05:07:51;;;;;;;;;;;;;;;;;;2097913;28;20333;-47
2022/10/19 05:08:52;;;;;;;;;;;;;;;;;;2097905;28;20019;-46
2022/10/19 05:09:53;;;;;;;;;;;;;;;;;;2099704;28;19920;-46
2022/10/19 05:10:54;;;;;;;;;;;;;;;;;;2106408;28;19924;-45
2022/10/19 05:11:55;;;;;;;;;;;;;;;;;;2106158;28;19970;-46
2022/10/19 05:12:55;;;;;;;;;;;;;;;;;;2106247;28;19920;-45
2022/10/19 05:13:56;;;;;;;;;;;;;;;;;;2106360;28;20010;-46
2022/10/19 05:14:57;;;;;;;;;;;;;;;;;;2106223;28;19947;-46
2022/10/19 05:15:58;;;;;;;;;;;;;;;;;;2106272;28;19924;-45
2022/10/19 05:16:59;;;;;;;;;;;;;;;;;;2106117;28;19927;-46
2022/10/19 05:17:59;;;;;;;;;;;;;;;;;;2104722;28;19924;-46
2022/10/19 05:19:00;;;;;;;;;;;;;;;;;;2106251;28;19924;-47
2022/10/19 05:20:01;;;;;;;;;;;;;;;;;;2106196;28;19965;-46
2022/10/19 05:21:02;;;;;;;;;;;;;;;;;;2106221;28;20018;-46
2022/10/19 05:22:03;;;;;;;;;;;;;;;;;;2106258;28;19974;-46
2022/10/19 05:23:04;;;;;;;;;;;;;;;;;;2106142;28;19972;-46
2022/10/19 05:24:07;;;;;;;;;;;;;;;;;;2106155;28;20125;-46
2022/10/19 05:25:08;;;;;;;;;;;;;;;;;;2106299;28;19928;-47
2022/10/19 05:26:09;;;;;;;;;;;;;;;;;;2106064;28;20327;-45
2022/10/19 05:27:10;;;;;;;;;;;;;;;;;;2106094;28;20373;-47
2022/10/19 05:28:11;;;;;;;;;;;;;;;;;;2106152;28;19924;-47
2022/10/19 05:29:12;;;;;;;;;;;;;;;;;;2106351;28;19920;-46
2022/10/19 05:30:13;;;;;;;;;;;;;;;;;;2106127;28;20359;-47
2022/10/19 05:31:14;;;;;;;;;;;;;;;;;;2106192;28;19920;-46
2022/10/19 05:32:15;;;;;;;;;;;;;;;;;;2106112;28;19920;-46
2022/10/19 05:33:16;;;;;;;;;;;;;;;;;;2106288;28;19923;-46
2022/10/19 05:34:17;;;;;;;;;;;;;;;;;;2106226;28;20365;-46
2022/10/19 05:35:17;;;;;;;;;;;;;;;;;;2106207;28;19924;-45
2022/10/19 05:36:24;;;;;;;;;;;;;;;;;;2107336;28;20368;-45
2022/10/19 05:37:24;;;;;;;;;;;;;;;;;;2107515;28;19923;-46
2022/10/19 05:38:25;;;;;;;;;;;;;;;;;;2107551;28;19920;-46
2022/10/19 05:39:26;;;;;;;;;;;;;;;;;;2107505;28;19986;-45
2022/10/19 05:40:27;;;;;;;;;;;;;;;;;;2107601;28;19920;-46
2022/10/19 05:41:28;;;;;;;;;;;;;;;;;;2107410;28;19969;-46
2022/10/19 05:42:29;;;;;;;;;;;;;;;;;;2107800;28;20003;-46
2022/10/19 05:43:30;;;;;;;;;;;;;;;;;;2107577;28;20428;-46
2022/10/19 05:44:31;;;;;;;;;;;;;;;;;;2107635;28;19927;-46
2022/10/19 05:45:31;;;;;;;;;;;;;;;;;;2107508;28;19943;-46
2022/10/19 05:46:32;;;;;;;;;;;;;;;;;;2107468;28;20362;-46
2022/10/19 05:47:33;;;;;;;;;;;;;;;;;;2107543;28;19926;-46
2022/10/19 05:48:34;;;;;;;;;;;;;;;;;;2107400;28;19920;-46
2022/10/19 05:49:35;;;;;;;;;;;;;;;;;;2107649;28;19959;-46
2022/10/19 05:50:36;;;;;;;;;;;;;;;;;;2107523;28;20335;-46
2022/10/19 05:51:37;;;;;;;;;;;;;;;;;;2107402;28;20281;-46
2022/10/19 05:52:37;;;;;;;;;;;;;;;;;;2107495;28;19928;-45
2022/10/19 05:53:38;;;;;;;;;;;;;;;;;;2107571;28;19929;-47
2022/10/19 05:54:44;;;;;;;;;;;;;;;;;;2107425;28;20331;-46
2022/10/19 05:55:45;;;;;;;;;;;;;;;;;;2107487;28;19920;-46
2022/10/19 05:56:46;;;;;;;;;;;;;;;;;;2107385;28;19927;-47
2022/10/19 05:57:46;;;;;;;;;;;;;;;;;;2107505;28;19927;-46
2022/10/19 05:58:47;;;;;;;;;;;;;;;;;;2107544;28;20041;-46
2022/10/19 05:59:48;;;;;;;;;;;;;;;;;;2107429;28;19924;-45
2022/10/19 06:00:49;;;;;;;;;;;;;;;;;;2107430;28;19974;-45
2022/10/19 06:01:50;;;;;;;;;;;;;;;;;;2107347;28;20019;-46
2022/10/19 06:02:51;;;;;;;;;;;;;;;;;;2107397;28;19924;-45
2022/10/19 06:03:55;;;;;;;;;;;;;;;;;;2107420;28;19920;-46
2022/10/19 06:04:55;;;;;;;;;;;;;;;;;;2107492;28;19919;-46
2022/10/19 06:05:56;;;;;;;;;;;;;;;;;;2107281;28;19920;-46
2022/10/19 06:06:57;;;;;;;;;;;;;;;;;;2107380;28;19976;-46
2022/10/19 06:07:58;;;;;;;;;;;;;;;;;;2107392;28;19931;-46
2022/10/19 06:08:59;;;;;;;;;;;;;;;;;;2107298;28;19966;-47
2022/10/19 06:09:59;;;;;;;;;;;;;;;;;;2104242;28;19921;-46
2022/10/19 06:11:00;;;;;;;;;;;;;;;;;;2098971;28;19927;-46
2022/10/19 06:12:01;;;;;;;;;;;;;;;;;;2099050;28;20348;-46
2022/10/19 06:13:02;;;;;;;;;;;;;;;;;;2098987;28;19920;-45
2022/10/19 06:14:03;;;;;;;;;;;;;;;;;;2103261;28;20174;-45
2022/10/19 06:15:04;;;;;;;;;;;;;;;;;;2107407;28;19955;-45
2022/10/19 06:16:04;;;;;;;;;;;;;;;;;;2107331;28;19974;-45
2022/10/19 06:17:05;;;;;;;;;;;;;;;;;;2107408;28;20057;-46
2022/10/19 06:18:06;;;;;;;;;;;;;;;;;;2107342;28;19919;-46
2022/10/19 06:19:07;;;;;;;;;;;;;;;;;;2107429;28;19924;-45
2022/10/19 06:20:08;;;;;;;;;;;;;;;;;;2107252;28;19924;-45
2022/10/19 06:21:09;;;;;;;;;;;;;;;;;;2107258;28;19968;-45
2022/10/19 06:22:10;;;;;;;;;;;;;;;;;;2107226;28;19920;-46
2022/10/19 06:23:10;;;;;;;;;;;;;;;;;;2107237;28;19920;-45
2022/10/19 06:24:11;;;;;;;;;;;;;;;;;;2107373;28;19920;-45
2022/10/19 06:25:12;;;;;;;;;;;;;;;;;;2107400;28;19983;-45
2022/10/19 06:26:17;;;;;;;;;;;;;;;;;;2107128;28;20265;-45
2022/10/19 06:27:17;;;;;;;;;;;;;;;;;;2107303;28;20019;-45
2022/10/19 06:28:18;;;;;;;;;;;;;;;;;;2107225;28;20363;-45
2022/10/19 06:29:19;;;;;;;;;;;;;;;;;;2107246;28;19920;-44
2022/10/19 06:30:20;;;;;;;;;;;;;;;;;;2107333;28;19959;-46
2022/10/19 06:31:21;;;;;;;;;;;;;;;;;;2107187;28;20352;-45
2022/10/19 06:32:21;;;;;;;;;;;;;;;;;;2107308;28;20027;-45
2022/10/19 06:33:22;;;;;;;;;;;;;;;;;;2107197;28;19975;-46
2022/10/19 06:34:23;;;;;;;;;;;;;;;;;;2107201;28;19924;-47
2022/10/19 06:35:24;;;;;;;;;;;;;;;;;;2107350;28;19920;-45
2022/10/19 06:36:25;;;;;;;;;;;;;;;;;;2107287;28;19919;-45
2022/10/19 06:37:26;;;;;;;;;;;;;;;;;;2107200;28;19956;-45
2022/10/19 06:38:27;;;;;;;;;;;;;;;;;;2107406;28;19986;-46
2022/10/19 06:39:28;;;;;;;;;;;;;;;;;;2107289;28;19923;-45
2022/10/19 06:40:28;;;;;;;;;;;;;;;;;;2107124;28;19927;-47
2022/10/19 06:41:29;;;;;;;;;;;;;;;;;;2107222;28;19926;-45
2022/10/19 06:42:30;;;;;;;;;;;;;;;;;;2107091;28;19930;-45
2022/10/19 06:43:31;;;;;;;;;;;;;;;;;;2107126;28;19920;-45
2022/10/19 06:44:32;;;;;;;;;;;;;;;;;;2107099;28;19973;-45
2022/10/19 06:45:33;;;;;;;;;;;;;;;;;;2107182;28;20010;-45
2022/10/19 06:46:36;;;;;;;;;;;;;;;;;;2107110;28;19927;-46
2022/10/19 06:47:37;;;;;;;;;;;;;;;;;;2106452;28;20280;-45
2022/10/19 06:48:38;;;;;;;;;;;;;;;;;;2107042;28;20281;-45
2022/10/19 06:49:39;;;;;;;;;;;;;;;;;;2107117;28;20323;-46
2022/10/19 06:50:40;;;;;;;;;;;;;;;;;;2107135;28;19920;-46
2022/10/19 06:51:41;;;;;;;;;;;;;;;;;;2106926;28;19920;-47
2022/10/19 06:52:42;;;;;;;;;;;;;;;;;;2107068;28;19920;-45
2022/10/19 06:53:43;;;;;;;;;;;;;;;;;;2107056;28;19920;-47
2022/10/19 06:54:44;;;;;;;;;;;;;;;;;;2107202;28;20005;-45
2022/10/19 06:55:44;;;;;;;;;;;;;;;;;;2107125;28;20349;-45